createdAt,value
2019-05-02T00:00:10.047Z,11.63
2019-05-02T00:02:14.765Z,11.67
2019-05-02T00:04:21.020Z,11.67
2019-05-02T00:06:24.607Z,11.63
2019-05-02T00:08:29.215Z,11.60
2019-05-02T00:10:34.544Z,11.58
2019-05-02T00:12:38.601Z,11.57
2019-05-02T00:14:43.017Z,11.56
2019-05-02T00:16:49.323Z,11.54
2019-05-02T00:18:52.530Z,11.54
2019-05-02T00:20:57.105Z,11.54
2019-05-02T00:23:01.961Z,11.51
2019-05-02T00:25:06.036Z,11.48
2019-05-02T00:27:10.919Z,11.46
2019-05-02T00:29:19.003Z,11.46
2019-05-02T00:31:21.494Z,11.42
2019-05-02T00:33:29.245Z,11.35
2019-05-02T00:35:30.924Z,11.26
2019-05-02T00:37:34.841Z,11.22
2019-05-02T00:39:38.657Z,11.21
2019-05-02T00:41:42.521Z,11.19
2019-05-02T00:43:46.369Z,11.10
2019-05-02T00:45:50.169Z,11.06
2019-05-02T00:47:59.987Z,11.05
2019-05-02T00:50:06.142Z,11.05
2019-05-02T00:52:09.582Z,11.03
2019-05-02T00:54:13.369Z,11.01
2019-05-02T00:56:17.169Z,10.96
2019-05-02T00:58:20.971Z,10.94
2019-05-02T01:00:25.894Z,10.88
2019-05-02T01:02:40.666Z,10.83
2019-05-02T01:04:43.651Z,10.83
2019-05-02T01:06:49.332Z,10.82
2019-05-02T01:08:53.084Z,10.81
2019-05-02T01:10:58.087Z,10.79
2019-05-02T01:13:01.828Z,10.73
2019-05-02T01:15:08.284Z,10.70
2019-05-02T01:17:11.580Z,10.66
2019-05-02T01:19:16.050Z,10.64
2019-05-02T01:21:21.015Z,10.59
2019-05-02T01:23:27.494Z,10.55
2019-05-02T01:25:30.458Z,10.51
2019-05-02T01:27:41.219Z,10.46
2019-05-02T01:29:50.150Z,10.40
2019-05-02T01:32:25.207Z,10.41
2019-05-02T01:35:05.169Z,10.41
2019-05-02T01:37:20.790Z,10.40
2019-05-02T01:39:23.017Z,10.44
2019-05-02T01:41:29.185Z,10.47
2019-05-02T01:43:32.897Z,10.47
2019-05-02T01:45:41.814Z,10.44
2019-05-02T01:47:43.237Z,10.41
2019-05-02T01:49:47.047Z,10.37
2019-05-02T01:51:52.880Z,10.31
2019-05-02T01:53:56.844Z,10.28
2019-05-02T01:56:00.597Z,10.26
2019-05-02T01:58:04.541Z,10.27
2019-05-02T02:00:11.441Z,10.22
2019-05-02T02:02:15.335Z,10.18
2019-05-02T02:04:20.942Z,10.15
2019-05-02T02:06:24.688Z,10.12
2019-05-02T02:08:32.616Z,10.04
2019-05-02T02:10:34.056Z,10.02
2019-05-02T02:12:41.249Z,9.98
2019-05-02T02:14:43.435Z,10.00
2019-05-02T02:16:47.288Z,10.01
2019-05-02T02:19:03.947Z,10.02
2019-05-02T02:21:20.133Z,10.00
2019-05-02T02:23:50.979Z,9.98
2019-05-02T02:25:58.597Z,9.98
2019-05-02T02:28:02.490Z,9.96
2019-05-02T02:30:06.956Z,9.97
2019-05-02T02:32:10.766Z,10.00
2019-05-02T02:34:21.483Z,10.04
2019-05-02T02:36:31.371Z,10.03
2019-05-02T02:38:33.165Z,9.98
2019-05-02T02:40:33.500Z,9.97
2019-05-02T02:42:37.947Z,9.98
2019-05-02T02:44:59.153Z,10.00
2019-05-02T02:47:11.966Z,9.97
2019-05-02T02:49:20.605Z,9.86
2019-05-02T02:51:24.030Z,9.75
2019-05-02T02:53:32.447Z,9.69
2019-05-02T02:55:36.323Z,9.69
2019-05-02T02:57:40.141Z,9.65
2019-05-02T02:59:43.938Z,9.63
2019-05-02T03:01:47.741Z,9.57
2019-05-02T03:03:51.553Z,9.50
2019-05-02T03:05:58.548Z,9.45
2019-05-02T03:08:05.308Z,9.44
2019-05-02T03:10:08.438Z,9.46
2019-05-02T03:12:36.149Z,9.45
2019-05-02T03:14:40.997Z,9.46
2019-05-02T03:16:47.187Z,9.44
2019-05-02T03:18:52.198Z,9.43
2019-05-02T03:20:56.120Z,9.39
2019-05-02T03:23:00.024Z,9.40
2019-05-02T03:25:04.174Z,9.43
2019-05-02T03:27:08.094Z,9.45
2019-05-02T03:29:12.042Z,9.47
2019-05-02T03:31:29.089Z,9.47
2019-05-02T03:33:21.446Z,9.41
2019-05-02T03:35:40.404Z,9.38
2019-05-02T03:37:31.645Z,9.36
2019-05-02T03:39:36.529Z,9.29
2019-05-02T03:41:40.512Z,9.25
2019-05-02T03:43:44.390Z,9.19
2019-05-02T03:45:48.348Z,9.12
2019-05-02T03:47:52.174Z,9.04
2019-05-02T03:49:56.245Z,8.99
2019-05-02T03:52:02.811Z,8.95
2019-05-02T03:54:10.296Z,8.89
2019-05-02T03:56:14.364Z,8.87
2019-05-02T03:58:18.427Z,8.86
2019-05-02T04:00:24.435Z,8.86
2019-05-02T04:02:28.933Z,8.80
2019-05-02T04:04:32.793Z,8.77
2019-05-02T04:06:37.097Z,8.76
2019-05-02T04:08:41.283Z,8.76
2019-05-02T04:11:21.358Z,8.74
2019-05-02T04:13:29.986Z,8.67
2019-05-02T04:15:35.135Z,8.62
2019-05-02T04:17:37.416Z,8.58
2019-05-02T04:19:41.373Z,8.55
2019-05-02T04:21:45.369Z,8.52
2019-05-02T04:23:49.653Z,8.49
2019-05-02T04:25:54.698Z,8.48
2019-05-02T04:27:59.856Z,8.49
2019-05-02T04:30:10.863Z,8.52
2019-05-02T04:32:11.581Z,8.57
2019-05-02T04:34:17.812Z,8.61
2019-05-02T04:36:20.463Z,8.62
2019-05-02T04:38:38.688Z,8.62
2019-05-02T04:40:35.143Z,8.68
2019-05-02T04:42:35.435Z,8.73
2019-05-02T04:44:47.897Z,8.76
2019-05-02T04:46:44.805Z,8.77
2019-05-02T04:48:53.000Z,8.84
2019-05-02T04:51:02.017Z,8.90
2019-05-02T04:53:00.843Z,8.97
2019-05-02T04:55:17.459Z,9.01
2019-05-02T04:57:10.366Z,9.07
2019-05-02T04:59:19.871Z,9.10
2019-05-02T05:01:21.363Z,9.14
2019-05-02T05:03:25.371Z,9.18
2019-05-02T05:05:31.398Z,9.21
2019-05-02T05:07:40.960Z,9.23
2019-05-02T05:09:47.973Z,9.24
2019-05-02T05:11:48.179Z,9.25
2019-05-02T05:13:52.467Z,9.25
2019-05-02T05:15:57.515Z,9.22
2019-05-02T05:18:04.480Z,9.25
2019-05-02T05:20:13.730Z,9.30
2019-05-02T05:22:13.375Z,9.36
2019-05-02T05:24:42.469Z,9.43
2019-05-02T05:26:49.292Z,9.51
2019-05-02T05:28:53.041Z,9.57
2019-05-02T05:30:58.295Z,9.61
2019-05-02T05:33:02.157Z,9.63
2019-05-02T05:35:09.139Z,9.66
2019-05-02T05:37:13.387Z,9.70
2019-05-02T05:39:17.663Z,9.75
2019-05-02T05:41:23.275Z,9.79
2019-05-02T05:43:27.626Z,9.84
2019-05-02T05:45:31.386Z,9.88
2019-05-02T05:47:35.104Z,9.90
2019-05-02T05:49:38.825Z,9.96
2019-05-02T05:51:42.547Z,10.01
2019-05-02T05:53:47.897Z,10.04
2019-05-02T05:55:53.670Z,10.07
2019-05-02T05:58:01.376Z,10.11
2019-05-02T06:00:03.713Z,10.13
2019-05-02T06:02:13.110Z,10.14
2019-05-02T06:04:22.102Z,10.15
2019-05-02T06:06:23.381Z,10.18
2019-05-02T06:08:25.383Z,10.22
2019-05-02T06:10:29.206Z,10.26
2019-05-02T06:12:35.496Z,10.27
2019-05-02T06:14:38.464Z,10.29
2019-05-02T06:16:46.698Z,10.36
2019-05-02T06:18:47.659Z,10.41
2019-05-02T06:20:51.490Z,10.47
2019-05-02T06:22:59.892Z,10.51
2019-05-02T06:25:08.653Z,10.55
2019-05-02T06:27:11.119Z,10.58
2019-05-02T06:29:18.735Z,10.57
2019-05-02T06:31:20.322Z,10.61
2019-05-02T06:33:25.930Z,10.71
2019-05-02T06:35:29.512Z,10.82
2019-05-02T06:37:33.241Z,10.91
2019-05-02T06:39:36.979Z,11.03
2019-05-02T06:41:40.718Z,11.16
2019-05-02T06:43:46.538Z,11.32
2019-05-02T06:45:49.890Z,11.43
2019-05-02T06:47:53.688Z,11.51
2019-05-02T06:50:01.076Z,11.62
2019-05-02T06:52:02.922Z,11.71
2019-05-02T06:54:06.741Z,11.79
2019-05-02T06:56:12.746Z,11.83
2019-05-02T06:58:16.003Z,11.90
2019-05-02T07:00:20.182Z,11.95
2019-05-02T07:02:28.128Z,11.99
2019-05-02T07:04:29.574Z,12.02
2019-05-02T07:06:41.999Z,12.06
2019-05-02T07:08:38.917Z,12.17
2019-05-02T07:10:44.925Z,12.29
2019-05-02T07:12:51.157Z,12.37
2019-05-02T07:14:56.097Z,12.44
2019-05-02T07:17:13.635Z,12.48
2019-05-02T07:19:29.177Z,12.51
2019-05-02T07:21:32.857Z,12.62
2019-05-02T07:23:36.589Z,12.77
2019-05-02T07:25:43.913Z,12.96
2019-05-02T07:27:45.919Z,13.19
2019-05-02T07:29:52.187Z,13.36
2019-05-02T07:31:55.119Z,13.44
2019-05-02T07:33:58.815Z,13.48
2019-05-02T07:36:02.632Z,13.52
2019-05-02T07:38:06.433Z,13.66
2019-05-02T07:40:11.993Z,13.88
2019-05-02T07:42:16.037Z,14.04
2019-05-02T07:44:19.771Z,14.16
2019-05-02T07:46:23.501Z,14.23
2019-05-02T07:48:27.250Z,14.21
2019-05-02T07:50:31.040Z,14.19
2019-05-02T07:52:34.984Z,14.20
2019-05-02T07:54:38.712Z,14.26
2019-05-02T07:56:43.584Z,14.38
2019-05-02T07:58:48.178Z,14.48
2019-05-02T08:00:51.887Z,14.58
2019-05-02T08:02:57.919Z,14.73
2019-05-02T08:05:01.242Z,14.88
2019-05-02T08:07:05.128Z,15.04
2019-05-02T08:09:09.792Z,15.26
2019-05-02T08:11:13.672Z,15.45
2019-05-02T08:13:19.380Z,15.52
2019-05-02T08:15:24.723Z,15.60
2019-05-02T08:17:28.594Z,15.71
2019-05-02T08:19:32.350Z,15.80
2019-05-02T08:21:36.157Z,15.94
2019-05-02T08:23:39.969Z,16.04
2019-05-02T08:25:45.463Z,16.15
2019-05-02T08:28:16.040Z,16.21
2019-05-02T08:30:22.066Z,16.28
2019-05-02T08:32:25.822Z,16.31
2019-05-02T08:34:31.080Z,16.37
2019-05-02T08:36:34.805Z,16.41
2019-05-02T08:38:38.668Z,16.41
2019-05-02T08:40:47.596Z,16.42
2019-05-02T08:42:47.832Z,16.52
2019-05-02T08:44:56.168Z,16.68
2019-05-02T08:46:57.092Z,16.83
2019-05-02T08:49:00.845Z,16.96
2019-05-02T08:51:04.752Z,17.04
2019-05-02T08:53:08.574Z,17.12
2019-05-02T08:55:12.499Z,17.15
2019-05-02T08:57:16.252Z,17.14
2019-05-02T08:59:24.457Z,17.13
2019-05-02T09:01:34.970Z,17.17
2019-05-02T09:03:38.928Z,17.23
2019-05-02T09:05:45.656Z,17.27
2019-05-02T09:07:43.370Z,17.30
2019-05-02T09:09:47.092Z,17.39
2019-05-02T09:12:04.291Z,17.52
2019-05-02T09:13:56.322Z,17.69
2019-05-02T09:16:02.804Z,17.86
2019-05-02T09:18:05.637Z,18.00
2019-05-02T09:20:15.595Z,18.09
2019-05-02T09:22:16.873Z,18.18
2019-05-02T09:24:23.283Z,18.25
2019-05-02T09:26:35.016Z,18.30
2019-05-02T09:28:32.050Z,18.35
2019-05-02T09:30:35.876Z,18.43
2019-05-02T09:32:41.729Z,18.53
2019-05-02T09:34:45.053Z,18.67
2019-05-02T09:36:48.789Z,18.84
2019-05-02T09:38:56.019Z,19.01
2019-05-02T09:40:58.048Z,19.11
2019-05-02T09:43:04.190Z,19.14
2019-05-02T09:45:09.886Z,19.20
2019-05-02T09:47:22.342Z,19.29
2019-05-02T09:49:26.173Z,19.35
2019-05-02T09:51:32.307Z,19.39
2019-05-02T09:53:35.587Z,19.39
2019-05-02T09:55:42.345Z,19.39
2019-05-02T09:57:45.166Z,19.41
2019-05-02T09:59:50.701Z,19.44
2019-05-02T10:01:54.365Z,19.47
2019-05-02T10:03:58.115Z,19.46
2019-05-02T10:06:03.084Z,19.48
2019-05-02T10:08:10.752Z,19.53
2019-05-02T10:10:12.880Z,19.62
2019-05-02T10:12:16.703Z,19.72
2019-05-02T10:14:22.410Z,19.87
2019-05-02T10:16:27.458Z,20.04
2019-05-02T10:18:32.937Z,20.17
2019-05-02T10:20:37.073Z,20.32
2019-05-02T10:22:41.860Z,20.48
2019-05-02T10:24:46.403Z,20.67
2019-05-02T10:26:50.150Z,20.83
2019-05-02T10:28:55.601Z,21.00
2019-05-02T10:30:59.365Z,21.13
2019-05-02T10:33:03.403Z,21.24
2019-05-02T10:35:08.364Z,21.35
2019-05-02T10:37:12.373Z,21.41
2019-05-02T10:39:16.125Z,21.45
2019-05-02T10:41:19.946Z,21.51
2019-05-02T10:43:23.684Z,21.60
2019-05-02T10:45:27.501Z,21.68
2019-05-02T10:47:32.795Z,21.78
2019-05-02T10:49:52.585Z,21.88
2019-05-02T10:51:56.095Z,21.96
2019-05-02T10:53:59.828Z,22.02
2019-05-02T10:56:03.572Z,22.11
2019-05-02T10:58:07.451Z,22.17
2019-05-02T11:00:15.448Z,22.27
2019-05-02T11:02:41.955Z,22.27
2019-05-02T11:04:49.434Z,22.36
2019-05-02T11:06:53.242Z,22.40
2019-05-02T11:08:57.811Z,22.35
2019-05-02T11:11:03.161Z,22.28
2019-05-02T11:13:18.991Z,22.22
2019-05-02T11:15:47.606Z,22.24
2019-05-02T11:17:52.965Z,22.31
2019-05-02T11:20:01.951Z,22.32
2019-05-02T11:22:05.538Z,22.26
2019-05-02T11:24:12.232Z,22.31
2019-05-02T11:26:21.509Z,22.12
2019-05-02T11:28:21.988Z,22.04
2019-05-02T11:30:26.711Z,22.04
2019-05-02T11:32:32.568Z,22.01
2019-05-02T11:34:36.157Z,21.99
2019-05-02T11:36:41.557Z,21.92
2019-05-02T11:38:48.037Z,21.84
2019-05-02T11:40:52.108Z,21.91
2019-05-02T11:42:57.331Z,21.99
2019-05-02T11:45:02.702Z,22.03
2019-05-02T11:47:06.601Z,21.99
2019-05-02T11:49:12.254Z,21.94
2019-05-02T11:51:16.510Z,21.83
2019-05-02T11:53:28.846Z,21.86
2019-05-02T11:55:28.955Z,21.93
2019-05-02T11:57:33.205Z,22.19
2019-05-02T11:59:36.727Z,22.19
2019-05-02T12:01:42.649Z,22.28
2019-05-02T12:03:49.594Z,22.39
2019-05-02T12:05:53.391Z,22.45
2019-05-02T12:08:00.825Z,22.45
2019-05-02T12:10:04.717Z,22.41
2019-05-02T12:12:08.368Z,22.32
2019-05-02T12:14:12.377Z,22.23
2019-05-02T12:16:16.587Z,22.09
2019-05-02T12:18:23.072Z,21.99
2019-05-02T12:20:28.618Z,21.89
2019-05-02T12:22:32.477Z,21.82
2019-05-02T12:24:40.384Z,21.81
2019-05-02T12:26:41.986Z,21.80
2019-05-02T12:28:45.901Z,21.92
2019-05-02T12:30:51.725Z,22.07
2019-05-02T12:32:55.136Z,22.16
2019-05-02T12:34:58.838Z,22.23
2019-05-02T12:37:02.658Z,22.35
2019-05-02T12:39:07.237Z,22.46
2019-05-02T12:41:20.312Z,22.61
2019-05-02T12:43:16.580Z,22.70
2019-05-02T12:45:21.941Z,22.74
2019-05-02T12:47:26.652Z,22.80
2019-05-02T12:49:32.351Z,22.86
2019-05-02T12:51:35.862Z,22.95
2019-05-02T12:53:41.310Z,23.00
2019-05-02T12:55:45.033Z,22.97
2019-05-02T12:57:48.750Z,22.95
2019-05-02T12:59:52.627Z,22.91
2019-05-02T13:01:57.972Z,22.84
2019-05-02T13:04:07.290Z,22.74
2019-05-02T13:06:12.335Z,22.62
2019-05-02T13:08:16.171Z,22.47
2019-05-02T13:10:29.725Z,22.34
2019-05-02T13:12:35.801Z,22.22
2019-05-02T13:14:39.733Z,22.09
2019-05-02T13:16:43.506Z,21.97
2019-05-02T13:18:47.397Z,21.87
2019-05-02T13:20:52.770Z,21.78
2019-05-02T13:23:22.530Z,21.72
2019-05-02T13:25:27.279Z,21.70
2019-05-02T13:27:42.983Z,21.69
2019-05-02T13:29:38.102Z,21.76
2019-05-02T13:32:04.102Z,22.16
2019-05-02T13:34:14.812Z,22.44
2019-05-02T13:36:52.633Z,22.50
2019-05-02T13:38:56.446Z,22.44
2019-05-02T13:41:02.424Z,22.32
2019-05-02T13:43:06.020Z,22.30
2019-05-02T13:45:17.975Z,22.28
2019-05-02T13:47:22.398Z,22.19
2019-05-02T13:49:26.194Z,22.08
2019-05-02T13:51:32.063Z,21.99
2019-05-02T13:53:37.740Z,21.92
2019-05-02T13:55:46.535Z,21.86
2019-05-02T13:57:50.347Z,21.72
2019-05-02T13:59:54.181Z,21.72
2019-05-02T14:01:58.757Z,21.72
2019-05-02T14:04:03.714Z,21.76
2019-05-02T14:06:08.230Z,21.82
2019-05-02T14:08:35.066Z,21.88
2019-05-02T14:10:39.268Z,21.90
2019-05-02T14:13:03.204Z,21.89
2019-05-02T14:15:07.338Z,21.85
2019-05-02T14:17:11.709Z,21.83
2019-05-02T14:19:15.494Z,21.79
2019-05-02T14:21:19.234Z,21.78
2019-05-02T14:23:22.973Z,21.79
2019-05-02T14:25:26.868Z,21.81
2019-05-02T14:27:32.054Z,21.81
2019-05-02T14:29:35.887Z,21.79
2019-05-02T14:31:39.821Z,21.79
2019-05-02T14:33:45.616Z,21.78
2019-05-02T14:35:49.412Z,21.77
2019-05-02T14:38:13.208Z,21.73
2019-05-02T14:40:26.938Z,21.71
2019-05-02T14:42:32.238Z,21.66
2019-05-02T14:45:01.475Z,21.64
2019-05-02T14:46:42.522Z,21.64
2019-05-02T14:48:46.847Z,21.58
2019-05-02T14:50:52.737Z,21.53
2019-05-02T14:52:59.054Z,21.53
2019-05-02T14:55:03.042Z,21.55
2019-05-02T14:57:17.044Z,21.51
2019-05-02T14:59:20.054Z,21.47
2019-05-02T15:01:26.057Z,21.45
2019-05-02T15:03:29.440Z,21.40
2019-05-02T15:05:33.188Z,21.43
2019-05-02T15:07:38.465Z,21.50
2019-05-02T15:09:42.256Z,21.52
2019-05-02T15:12:13.495Z,21.50
2019-05-02T15:14:17.907Z,21.53
2019-05-02T15:16:17.695Z,21.54
2019-05-02T15:18:22.789Z,21.52
2019-05-02T15:20:37.274Z,21.51
2019-05-02T15:22:37.195Z,21.49
2019-05-02T15:24:38.062Z,21.49
2019-05-02T15:26:41.953Z,21.46
2019-05-02T15:28:45.980Z,21.42
2019-05-02T15:31:05.122Z,21.39
2019-05-02T15:33:12.593Z,21.36
2019-05-02T15:35:42.546Z,21.31
2019-05-02T15:37:46.317Z,21.19
2019-05-02T15:41:55.522Z,21.17
2019-05-02T15:43:59.268Z,21.14
2019-05-02T15:46:02.982Z,21.15
2019-05-02T15:48:06.825Z,21.15
2019-05-02T15:50:14.739Z,21.16
2019-05-02T15:52:24.124Z,21.15
2019-05-02T15:54:25.858Z,21.16
2019-05-02T15:56:29.603Z,21.21
2019-05-02T15:58:33.332Z,21.21
2019-05-02T16:00:41.983Z,21.21
2019-05-02T16:02:45.830Z,21.20
2019-05-02T16:04:49.585Z,21.14
2019-05-02T16:06:53.315Z,21.09
2019-05-02T16:08:57.136Z,21.05
2019-05-02T16:11:02.872Z,20.99
2019-05-02T16:13:08.774Z,21.02
2019-05-02T16:15:24.745Z,21.02
2019-05-02T16:17:25.695Z,21.02
2019-05-02T16:19:29.844Z,20.99
2019-05-02T16:21:40.175Z,21.03
2019-05-02T16:24:10.902Z,21.06
2019-05-02T16:26:08.926Z,21.07
2019-05-02T16:28:12.811Z,21.08
2019-05-02T16:30:19.904Z,21.05
2019-05-02T16:32:35.637Z,21.02
2019-05-02T16:34:54.204Z,21.02
2019-05-02T16:37:14.992Z,20.98
2019-05-02T16:39:15.482Z,20.94
2019-05-02T16:41:19.461Z,20.87
2019-05-02T16:43:24.979Z,20.82
2019-05-02T16:45:28.861Z,20.83
2019-05-02T16:47:32.788Z,20.76
2019-05-02T16:49:36.531Z,20.76
2019-05-02T16:51:43.029Z,20.57
2019-05-02T16:53:45.779Z,20.57
2019-05-02T16:55:49.513Z,20.58
2019-05-02T16:57:56.739Z,20.58
2019-05-02T17:00:01.494Z,20.53
2019-05-02T17:02:07.984Z,20.48
2019-05-02T17:04:09.879Z,20.46
2019-05-02T17:06:16.958Z,20.41
2019-05-02T17:08:38.175Z,20.38
2019-05-02T17:11:01.957Z,20.32
2019-05-02T17:13:05.958Z,20.28
2019-05-02T17:15:35.152Z,20.20
2019-05-02T17:17:37.611Z,20.16
2019-05-02T17:19:41.353Z,20.10
2019-05-02T17:21:53.933Z,20.08
2019-05-02T17:23:52.401Z,20.03
2019-05-02T17:25:56.260Z,20.00
2019-05-02T17:28:02.504Z,19.96
2019-05-02T17:30:06.109Z,19.91
2019-05-02T17:32:11.482Z,19.84
2019-05-02T17:34:15.464Z,19.78
2019-05-02T17:36:21.597Z,19.72
2019-05-02T17:38:29.101Z,19.67
2019-05-02T17:40:30.115Z,19.63
2019-05-02T17:42:33.956Z,19.61
2019-05-02T17:44:37.684Z,19.57
2019-05-02T17:46:42.834Z,19.50
2019-05-02T17:48:47.855Z,19.47
2019-05-02T17:51:12.374Z,19.42
2019-05-02T17:53:16.363Z,19.38
2019-05-02T17:55:21.523Z,19.34
2019-05-02T17:57:28.619Z,19.26
2019-05-02T17:59:34.408Z,19.23
2019-05-02T18:01:41.662Z,19.19
2019-05-02T18:03:45.054Z,19.14
2019-05-02T18:05:48.872Z,19.14
2019-05-02T18:07:52.767Z,19.11
2019-05-02T18:09:56.415Z,19.06
2019-05-02T18:12:01.540Z,18.98
2019-05-02T18:14:16.082Z,18.94
2019-05-02T18:16:15.076Z,18.93
2019-05-02T18:18:16.792Z,18.93
2019-05-02T18:20:21.923Z,18.89
2019-05-02T18:22:26.412Z,18.85
2019-05-02T18:24:30.203Z,18.79
2019-05-02T18:26:34.080Z,18.73
2019-05-02T18:28:47.001Z,18.69
2019-05-02T18:30:43.388Z,18.64
2019-05-02T18:32:47.200Z,18.58
2019-05-02T18:34:52.002Z,18.56
2019-05-02T18:36:57.537Z,18.53
2019-05-02T18:39:05.153Z,18.48
2019-05-02T18:41:07.969Z,18.44
2019-05-02T18:43:11.855Z,18.47
2019-05-02T18:45:19.279Z,18.50
2019-05-02T18:47:24.775Z,18.54
2019-05-02T18:49:28.800Z,18.57
2019-05-02T18:51:32.654Z,18.52
2019-05-02T18:53:36.391Z,18.49
2019-05-02T18:55:42.203Z,18.45
2019-05-02T18:57:46.117Z,18.36
2019-05-02T18:59:51.922Z,18.31
2019-05-02T19:01:56.585Z,18.28
2019-05-02T19:04:02.074Z,18.25
2019-05-02T19:06:05.926Z,18.25
2019-05-02T19:08:11.973Z,18.23
2019-05-02T19:10:15.821Z,18.18
2019-05-02T19:12:25.737Z,18.12
2019-05-02T19:14:26.381Z,18.04
2019-05-02T19:16:31.769Z,17.91
2019-05-02T19:18:35.737Z,17.80
2019-05-02T19:21:07.897Z,17.72
2019-05-02T19:23:12.459Z,17.70
2019-05-02T19:25:16.378Z,17.72
2019-05-02T19:27:39.132Z,17.70
2019-05-02T19:29:42.896Z,17.71
2019-05-02T19:31:52.534Z,17.69
2019-05-02T19:33:56.489Z,17.66
2019-05-02T19:36:00.257Z,17.66
2019-05-02T19:38:04.058Z,17.66
2019-05-02T19:40:10.131Z,17.65
2019-05-02T19:42:17.089Z,17.64
2019-05-02T19:44:21.203Z,17.63
2019-05-02T19:46:34.718Z,17.64
2019-05-02T19:48:33.067Z,17.65
2019-05-02T19:50:43.179Z,17.65
2019-05-02T19:52:43.508Z,17.65
2019-05-02T19:54:47.279Z,17.63
2019-05-02T19:56:52.388Z,17.62
2019-05-02T19:58:56.728Z,17.60
2019-05-02T20:01:02.184Z,17.52
2019-05-02T20:03:06.296Z,17.46
2019-05-02T20:05:11.857Z,17.44
2019-05-02T20:07:15.645Z,17.42
2019-05-02T20:09:19.432Z,17.42
2019-05-02T20:11:23.241Z,17.36
2019-05-02T20:13:29.638Z,17.33
2019-05-02T20:15:34.549Z,17.35
2019-05-02T20:17:38.281Z,17.36
2019-05-02T20:19:43.824Z,17.36
2019-05-02T20:22:12.763Z,17.32
2019-05-02T20:24:19.413Z,17.21
2019-05-02T20:26:22.245Z,17.06
2019-05-02T20:28:26.021Z,17.02
2019-05-02T20:30:29.842Z,16.96
2019-05-02T20:32:33.670Z,16.91
2019-05-02T20:34:37.500Z,16.86
2019-05-02T20:36:42.603Z,16.81
2019-05-02T20:38:46.389Z,16.77
2019-05-02T20:40:52.050Z,16.71
2019-05-02T20:42:56.029Z,16.65
2019-05-02T20:44:59.906Z,16.61
2019-05-02T20:47:04.884Z,16.56
2019-05-02T20:49:08.726Z,16.47
2019-05-02T20:51:12.563Z,16.38
2019-05-02T20:53:28.142Z,16.29
2019-05-02T20:55:21.869Z,16.20
2019-05-02T20:57:25.591Z,16.17
2019-05-02T20:59:29.319Z,16.17
2019-05-02T21:01:33.052Z,16.17
2019-05-02T21:03:37.849Z,16.14
2019-05-02T21:05:52.088Z,16.08
2019-05-02T21:08:08.277Z,16.09
2019-05-02T21:10:33.975Z,16.07
2019-05-02T21:12:37.728Z,16.03
2019-05-02T21:14:41.678Z,15.98
2019-05-02T21:16:45.466Z,15.95
2019-05-02T21:18:49.265Z,15.93
2019-05-02T21:20:53.079Z,15.89
2019-05-02T21:22:56.876Z,15.86
2019-05-02T21:25:02.454Z,15.84
2019-05-02T21:27:06.159Z,15.82
2019-05-02T21:29:11.993Z,15.81
2019-05-02T21:31:15.423Z,15.81
2019-05-02T21:33:36.393Z,15.83
2019-05-02T21:35:40.136Z,15.81
2019-05-02T21:37:43.871Z,15.79
2019-05-02T21:39:47.853Z,15.80
2019-05-02T21:41:51.821Z,15.79
2019-05-02T21:43:55.542Z,15.76
2019-05-02T21:45:59.403Z,15.74
2019-05-02T21:48:03.233Z,15.69
2019-05-02T21:50:15.847Z,15.65
2019-05-02T21:52:42.376Z,15.63
2019-05-02T21:54:52.883Z,15.61
2019-05-02T21:57:00.045Z,15.60
2019-05-02T21:59:07.951Z,15.57
2019-05-02T22:01:13.236Z,15.52
2019-05-02T22:03:17.103Z,15.52
2019-05-02T22:05:22.218Z,15.47
2019-05-02T22:07:26.128Z,15.43
2019-05-02T22:09:32.163Z,15.40
2019-05-02T22:11:35.591Z,15.36
2019-05-02T22:13:39.439Z,15.32
2019-05-02T22:15:43.299Z,15.31
2019-05-02T22:17:47.153Z,15.33
2019-05-02T22:19:52.482Z,15.33
2019-05-02T22:21:56.297Z,15.34
2019-05-02T22:24:10.375Z,15.34
2019-05-02T22:26:06.643Z,15.34
2019-05-02T22:28:12.478Z,15.34
2019-05-02T22:30:16.086Z,15.32
2019-05-02T22:32:19.912Z,15.30
2019-05-02T22:34:23.706Z,15.26
2019-05-02T22:36:27.575Z,15.23
2019-05-02T22:38:45.487Z,15.20
2019-05-02T22:40:50.516Z,15.16
2019-05-02T22:42:54.302Z,15.13
2019-05-02T22:44:58.021Z,15.09
2019-05-02T22:47:01.954Z,15.06
2019-05-02T22:49:05.918Z,15.05
2019-05-02T22:51:09.780Z,15.02
2019-05-02T22:53:14.019Z,15.05
2019-05-02T22:55:17.922Z,15.06
2019-05-02T22:57:22.598Z,15.05
2019-05-02T22:59:26.450Z,15.06
2019-05-02T23:01:32.255Z,15.06
2019-05-02T23:03:35.915Z,15.05
2019-05-02T23:05:42.213Z,15.07
2019-05-02T23:07:46.988Z,15.08
2019-05-02T23:09:52.672Z,15.07
2019-05-02T23:11:56.469Z,15.07
2019-05-02T23:14:01.740Z,15.05
2019-05-02T23:16:05.714Z,15.04
2019-05-02T23:18:09.490Z,15.02
2019-05-02T23:20:13.824Z,14.97
2019-05-02T23:22:18.627Z,14.94
2019-05-02T23:24:39.179Z,14.86
2019-05-02T23:26:59.006Z,14.81
2019-05-02T23:29:05.971Z,14.80
2019-05-02T23:31:11.466Z,14.83
2019-05-02T23:33:16.345Z,14.85
2019-05-02T23:35:20.170Z,14.85
2019-05-02T23:37:24.964Z,14.82
2019-05-02T23:39:28.885Z,14.82
2019-05-02T23:41:32.948Z,14.78
2019-05-02T23:43:36.804Z,14.73
2019-05-02T23:45:42.273Z,14.70
2019-05-02T23:47:47.068Z,14.69
2019-05-02T23:49:52.816Z,14.66
2019-05-02T23:51:56.696Z,14.62
2019-05-02T23:54:02.131Z,14.60
2019-05-02T23:56:06.027Z,14.57
2019-05-02T23:58:11.890Z,14.55
